Hauptseite
METAR-TAF:

METAR-TAF

Flughäfen :

Flughafen Weeze

Weeze, Deutschland

Breite: 51-36-09N, Länge: 006-08-32E, Höhe: 32 m

Beobachtung

Neuester Wetterbericht von vor 14 Minuten, um 05:20 UTC
Windstille
Temperatur 13°C
Luftfeuchtigkeit 88%
Luftdruck 1023 hPa
Sichtweite 10 km oder mehr
Durchbrochene Bewölkung in der Höhe von 2000 ft

METAR: EDLV 240520Z 00000KT 9999 BKN020 13/11 Q1023

Zeit: 07:34 (05:34 UTC)

Prognose

Neuester Wetterbericht von vor 2 Stunden und 9 Minuten, um 03:25 UTC
Gültige Prognose vom 24 um 04 UTC bis 24 um 24 UTC
Wind 2 kt aus unterschiedlichen Richtungen
Sichtweite 10 km oder mehr
Durchbrochene Bewölkung in der Höhe von 4000 ft
Zeitweise
vom 24 um 04 UTC bis 24 um 05 UTC
Sichtweite: 4000 m
feuchter Dunst
Übergehend zu
vom 24 um 05 UTC bis 24 um 08 UTC
Wind 6 kt aus Nord/Nordwest

TAF: EDLV 240325Z 2404/2424 VRB02KT 9999 BKN040 TEMPO 2404/2405 4000 BR BECMG 2405/2408 33006KT

Wetterbeobachtungen und Prognosen von mehr als 4000 Flughäfen (METAR und TAF Bericht).

Die verfügbaren Stationen werden durch gelbe und rote Markierungen auf der Karte dargestellt.

Führen Sie die Maus auf sie, um den Namen der Station zu sehen.

Darauf klicken, um die Beobachtung von Wetterbeobachtungen und Prognosen zu sehen.

Um die Karte zu ändern : klicken Sie auf den grünen Tasten mit einem schwarzen Kreuz Zum Vergrößern, auf den grünen Button mit einem Gedankenstrich zu verkleinern, oder auf die grünen Pfeile für benachbarte Karten.


METAR-TAF: